Time;durP1;ratioP1;P1;durP2;ratioP2;P2;SDS_P1;SDS_P2;PMS_P1;PMS_P2;Temp;Humidity;BMP_temperature;BMP_pressure;BME280_temperature;BME280_humidity;BME280_pressure;Samples;Min_cycle;Max_cycle;Signal;HPM_P1;HPM_P2
2021/09/12 00:00:08;;;;;;;4.82;3.05;;;17.60;99.90;;;;;;4993204;28;20196;-82
2021/09/12 00:02:33;;;;;;;8.02;2.75;;;17.30;99.90;;;;;;4993266;28;20181;-84
2021/09/12 00:04:59;;;;;;;7.97;2.75;;;17.30;99.90;;;;;;4993428;28;20176;-82
2021/09/12 00:07:25;;;;;;;6.60;3.15;;;17.20;99.90;;;;;;4993430;28;20211;-83
2021/09/12 00:09:51;;;;;;;7.18;2.47;;;17.10;99.90;;;;;;4992701;28;20185;-83
2021/09/12 00:12:16;;;;;;;10.77;3.17;;;17.10;99.90;;;;;;4993241;28;20205;-82
2021/09/12 00:14:42;;;;;;;5.60;2.70;;;17.10;99.90;;;;;;4992494;28;20165;-83
2021/09/12 00:17:08;;;;;;;6.50;2.50;;;17.10;99.90;;;;;;4992922;28;20641;-81
2021/09/12 00:19:33;;;;;;;7.07;2.60;;;16.90;99.90;;;;;;4992902;28;20185;-82
2021/09/12 00:21:59;;;;;;;7.93;2.38;;;16.90;99.90;;;;;;4993382;28;20523;-82
2021/09/12 00:24:25;;;;;;;5.00;2.90;;;16.80;99.90;;;;;;4993156;28;20605;-82
2021/09/12 00:26:51;;;;;;;4.05;2.33;;;16.70;99.90;;;;;;4996237;28;20213;-82
2021/09/12 00:29:18;;;;;;;4.95;2.67;;;16.70;99.90;;;;;;4995343;28;20267;-81
2021/09/12 00:31:44;;;;;;;6.85;2.58;;;16.80;99.90;;;;;;5000893;28;20169;-83
2021/09/12 00:34:09;;;;;;;4.38;2.60;;;16.90;99.90;;;;;;4998382;28;20172;-82
2021/09/12 00:36:35;;;;;;;7.10;2.60;;;16.80;99.90;;;;;;4993574;28;20172;-84
2021/09/12 00:39:01;;;;;;;7.70;2.80;;;16.70;99.90;;;;;;4992721;28;20185;-84
2021/09/12 00:41:26;;;;;;;6.07;3.08;;;16.70;99.90;;;;;;4994407;28;20208;-84
2021/09/12 00:43:52;;;;;;;5.15;2.65;;;17.00;99.90;;;;;;4992533;28;20185;-82
2021/09/12 00:46:18;;;;;;;3.10;2.80;;;16.90;99.90;;;;;;4992657;28;20228;-82
2021/09/12 00:48:43;;;;;;;9.27;2.65;;;16.80;99.90;;;;;;4992554;28;20275;-83
2021/09/12 00:51:09;;;;;;;6.45;3.08;;;16.60;99.90;;;;;;4993842;28;20170;-83
2021/09/12 00:53:36;;;;;;;5.20;2.90;;;16.50;99.90;;;;;;4993632;28;20594;-82
2021/09/12 00:56:03;;;;;;;4.20;2.42;;;16.40;99.90;;;;;;4992218;28;20276;-83
2021/09/12 00:58:30;;;;;;;5.03;2.80;;;16.40;99.90;;;;;;4992687;28;20197;-82
2021/09/12 01:00:56;;;;;;;4.57;2.65;;;16.30;99.90;;;;;;4992666;28;20542;-83
2021/09/12 01:03:22;;;;;;;4.50;3.10;;;16.40;99.90;;;;;;4992598;28;20177;-82
2021/09/12 01:05:48;;;;;;;6.93;2.80;;;16.40;99.90;;;;;;4992506;28;20542;-85
2021/09/12 01:08:14;;;;;;;10.70;3.17;;;16.30;99.90;;;;;;4992174;28;20197;-85
2021/09/12 01:10:41;;;;;;;6.47;2.63;;;16.10;99.90;;;;;;4992298;28;20529;-83
2021/09/12 01:13:07;;;;;;;8.27;2.72;;;16.10;99.90;;;;;;4993620;28;20161;-83
2021/09/12 01:15:33;;;;;;;5.15;2.65;;;16.10;99.90;;;;;;4992414;28;20184;-83
2021/09/12 01:17:59;;;;;;;3.88;3.08;;;16.00;99.90;;;;;;4992351;28;20177;-83
2021/09/12 01:20:25;;;;;;;11.88;3.00;;;15.90;99.90;;;;;;4993442;28;20169;-82
2021/09/12 01:22:51;;;;;;;6.95;2.30;;;15.80;99.90;;;;;;4993361;28;20171;-83
2021/09/12 01:25:17;;;;;;;4.88;2.85;;;16.00;99.90;;;;;;4992202;28;20173;-82
2021/09/12 01:27:43;;;;;;;7.57;3.13;;;16.20;99.90;;;;;;4991833;28;20209;-84
2021/09/12 01:30:10;;;;;;;4.90;2.92;;;16.20;99.90;;;;;;4991839;28;20173;-83
2021/09/12 01:32:36;;;;;;;7.32;3.33;;;16.20;99.90;;;;;;4992039;28;20177;-83
2021/09/12 01:35:05;;;;;;;3.28;2.47;;;16.10;99.90;;;;;;4992150;28;20189;-82
2021/09/12 01:37:31;;;;;;;4.78;3.17;;;16.20;99.90;;;;;;4993560;28;20169;-82
2021/09/12 01:39:57;;;;;;;6.25;2.95;;;16.20;99.90;;;;;;4991916;28;20193;-81
2021/09/12 01:42:23;;;;;;;3.40;3.08;;;16.10;99.90;;;;;;4992064;28;20165;-85
2021/09/12 01:44:50;;;;;;;6.53;2.75;;;15.90;99.90;;;;;;4991993;28;20297;-82
2021/09/12 01:47:16;;;;;;;6.22;3.33;;;15.70;99.90;;;;;;4991610;28;20209;-83
2021/09/12 01:49:43;;;;;;;10.18;3.25;;;15.80;99.90;;;;;;4993032;28;20189;-83
2021/09/12 01:52:13;;;;;;;6.70;3.20;;;15.90;99.90;;;;;;4991780;28;20181;-82
2021/09/12 01:54:39;;;;;;;4.00;3.05;;;15.90;99.90;;;;;;4993129;28;20258;-82
2021/09/12 01:57:05;;;;;;;5.65;3.00;;;15.70;99.90;;;;;;4991672;28;20578;-82
2021/09/12 01:59:31;;;;;;;6.88;3.67;;;15.60;99.90;;;;;;4992785;28;20189;-82
2021/09/12 02:01:57;;;;;;;6.15;3.35;;;15.60;99.90;;;;;;4992857;28;20181;-82
2021/09/12 02:04:22;;;;;;;8.85;3.13;;;15.70;99.90;;;;;;4991763;28;20652;-82
2021/09/12 02:06:48;;;;;;;8.57;3.13;;;15.60;99.90;;;;;;4991807;28;20224;-83
2021/09/12 02:09:14;;;;;;;3.00;2.72;;;15.70;99.90;;;;;;4993359;28;20177;-84
2021/09/12 02:11:39;;;;;;;6.38;3.15;;;15.80;99.90;;;;;;4992512;28;20267;-87
2021/09/12 02:14:05;;;;;;;8.93;2.90;;;15.80;99.90;;;;;;4992456;28;20262;-85
2021/09/12 02:16:31;;;;;;;8.48;3.70;;;15.60;99.90;;;;;;4992146;28;20637;-83
2021/09/12 02:18:56;;;;;;;8.98;3.35;;;15.70;99.90;;;;;;4992039;28;20593;-83
2021/09/12 02:21:22;;;;;;;8.13;3.00;;;15.70;99.90;;;;;;4992100;28;20629;-85
2021/09/12 02:23:47;;;;;;;19.05;3.42;;;15.70;99.90;;;;;;4993386;28;20173;-83
2021/09/12 02:26:13;;;;;;;7.90;3.97;;;15.80;99.90;;;;;;4992161;28;20244;-84
2021/09/12 02:28:39;;;;;;;4.22;3.25;;;15.90;99.90;;;;;;4991604;28;20196;-83
2021/09/12 02:31:05;;;;;;;5.10;3.05;;;15.90;99.90;;;;;;4993057;28;20630;-83
2021/09/12 02:33:30;;;;;;;13.60;3.35;;;15.80;99.90;;;;;;4992380;28;20300;-82
2021/09/12 02:35:56;;;;;;;6.28;3.45;;;15.80;99.90;;;;;;4992141;28;20180;-82
2021/09/12 02:38:22;;;;;;;4.80;3.33;;;15.90;99.90;;;;;;4996029;28;20197;-85
2021/09/12 02:40:47;;;;;;;10.77;4.00;;;16.00;99.90;;;;;;5001099;28;20210;-82
2021/09/12 02:43:13;;;;;;;6.90;4.13;;;16.00;99.90;;;;;;5002008;28;20645;-83
2021/09/12 02:45:39;;;;;;;11.55;4.20;;;16.10;99.90;;;;;;5001917;28;20176;-81
2021/09/12 02:48:04;;;;;;;9.57;3.88;;;16.10;99.90;;;;;;5002699;28;20204;-82
2021/09/12 02:50:30;;;;;;;6.30;3.40;;;16.10;99.90;;;;;;5006487;28;20188;-83
2021/09/12 02:52:56;;;;;;;5.55;3.53;;;16.10;99.90;;;;;;5009603;28;20165;-82
2021/09/12 02:55:21;;;;;;;9.70;3.25;;;16.10;99.90;;;;;;5011946;28;20661;-82
2021/09/12 02:57:47;;;;;;;12.50;4.32;;;16.00;99.90;;;;;;5011889;28;20357;-82
2021/09/12 03:00:13;;;;;;;6.68;3.70;;;16.00;99.90;;;;;;5013191;28;20219;-82
2021/09/12 03:02:39;;;;;;;6.82;3.50;;;16.20;99.90;;;;;;5011375;28;20189;-81
2021/09/12 03:05:06;;;;;;;7.38;4.03;;;16.20;99.90;;;;;;5007889;28;20264;-82
2021/09/12 03:07:31;;;;;;;6.10;3.75;;;16.10;99.90;;;;;;4998325;28;20205;-85
2021/09/12 03:09:57;;;;;;;10.70;3.22;;;16.00;99.90;;;;;;4995347;28;20542;-83
2021/09/12 03:12:22;;;;;;;6.70;3.60;;;16.00;99.90;;;;;;4995295;28;20169;-84
2021/09/12 03:14:48;;;;;;;9.95;4.10;;;15.80;99.90;;;;;;4995653;28;20642;-82
2021/09/12 03:17:14;;;;;;;9.25;3.40;;;15.60;99.90;;;;;;4994933;28;20177;-82
2021/09/12 03:19:39;;;;;;;8.30;3.65;;;15.60;99.90;;;;;;4994385;28;20185;-82
2021/09/12 03:22:05;;;;;;;6.10;4.18;;;15.50;99.90;;;;;;4995538;28;20157;-82
2021/09/12 03:24:31;;;;;;;9.02;4.13;;;15.50;99.90;;;;;;4978088;28;20170;-83
2021/09/12 03:26:57;;;;;;;5.75;4.55;;;15.60;99.90;;;;;;4994376;28;20568;-83
2021/09/12 03:29:23;;;;;;;13.98;4.57;;;15.50;99.90;;;;;;4995153;28;20239;-83
2021/09/12 03:31:48;;;;;;;4.32;3.45;;;15.40;99.90;;;;;;4994537;28;20268;-83
2021/09/12 03:34:14;;;;;;;5.00;4.07;;;15.50;99.90;;;;;;4994674;28;20169;-85
2021/09/12 03:36:40;;;;;;;4.13;3.72;;;15.50;99.90;;;;;;4995991;28;20162;-82
2021/09/12 03:39:06;;;;;;;9.77;4.60;;;15.30;99.90;;;;;;4995863;28;20213;-84
2021/09/12 03:41:32;;;;;;;8.75;4.05;;;15.40;99.90;;;;;;4994540;28;20174;-83
2021/09/12 03:43:57;;;;;;;10.15;4.40;;;15.40;99.90;;;;;;5008776;23;20213;-81
2021/09/12 03:46:23;;;;;;;4.32;3.65;;;15.50;99.90;;;;;;4993391;28;20259;-81
2021/09/12 03:48:48;;;;;;;9.02;4.18;;;15.70;99.90;;;;;;4991725;28;20878;-81
2021/09/12 03:51:14;;;;;;;9.25;4.10;;;15.60;99.90;;;;;;4993591;28;20228;-81
2021/09/12 03:53:40;;;;;;;11.30;4.50;;;15.50;99.90;;;;;;4993288;28;20233;-81
2021/09/12 03:56:05;;;;;;;5.03;4.20;;;15.70;99.90;;;;;;4991289;28;20542;-81
2021/09/12 03:58:31;;;;;;;8.25;4.20;;;15.70;99.90;;;;;;4992312;28;20192;-81
2021/09/12 04:00:57;;;;;;;6.82;4.30;;;15.60;99.90;;;;;;4992954;28;20618;-81
2021/09/12 04:03:22;;;;;;;8.05;4.15;;;15.30;99.90;;;;;;4993140;28;20177;-81
2021/09/12 04:05:48;;;;;;;5.55;3.75;;;15.20;99.90;;;;;;4992810;28;20586;-81
2021/09/12 04:08:14;;;;;;;5.65;4.40;;;15.10;99.90;;;;;;4994299;28;20196;-81
2021/09/12 04:10:39;;;;;;;5.10;3.58;;;15.00;99.90;;;;;;4994184;28;20161;-80
2021/09/12 04:13:05;;;;;;;4.60;3.85;;;15.00;99.90;;;;;;4994246;28;20255;-81
2021/09/12 04:15:31;;;;;;;14.32;4.30;;;15.20;99.90;;;;;;4992692;28;20165;-81
2021/09/12 04:17:56;;;;;;;5.15;4.15;;;15.20;99.90;;;;;;4993519;28;20169;-81
2021/09/12 04:20:22;;;;;;;6.47;4.60;;;15.30;99.90;;;;;;4992802;28;20201;-81
2021/09/12 04:22:48;;;;;;;6.95;3.65;;;15.30;99.90;;;;;;4992725;28;20264;-81
2021/09/12 04:25:14;;;;;;;6.38;3.33;;;15.40;99.90;;;;;;4992741;28;20173;-81
2021/09/12 04:27:39;;;;;;;10.95;4.30;;;15.50;99.90;;;;;;4994032;28;20216;-81
2021/09/12 04:30:08;;;;;;;10.40;4.40;;;15.60;99.90;;;;;;4992275;28;20201;-81
2021/09/12 04:32:33;;;;;;;7.80;3.58;;;15.70;99.90;;;;;;4993865;28;20204;-80
2021/09/12 04:34:59;;;;;;;12.30;3.70;;;15.80;99.90;;;;;;4992277;28;20240;-81
2021/09/12 04:37:25;;;;;;;6.57;3.75;;;15.80;99.90;;;;;;4993586;28;20797;-81
2021/09/12 04:39:50;;;;;;;8.88;4.25;;;15.90;99.90;;;;;;4993594;28;20220;-81
2021/09/12 04:42:16;;;;;;;4.90;3.67;;;15.90;99.90;;;;;;4993587;28;20173;-81
2021/09/12 04:44:42;;;;;;;9.15;3.63;;;15.70;99.90;;;;;;4993290;28;20596;-81
2021/09/12 04:47:07;;;;;;;8.93;4.18;;;15.70;99.90;;;;;;4991949;28;20212;-81
2021/09/12 04:49:33;;;;;;;4.82;3.80;;;15.70;99.90;;;;;;4993230;28;20189;-81
2021/09/12 04:51:59;;;;;;;11.68;3.35;;;15.70;99.90;;;;;;4993522;28;20191;-81
2021/09/12 04:54:24;;;;;;;5.00;4.13;;;15.50;99.90;;;;;;4992311;28;20173;-81
2021/09/12 04:56:50;;;;;;;7.05;3.72;;;15.50;99.90;;;;;;4992211;28;20204;-81
2021/09/12 04:59:16;;;;;;;6.95;3.80;;;15.50;99.90;;;;;;4991837;28;20561;-81
2021/09/12 05:01:41;;;;;;;4.50;4.07;;;15.60;99.90;;;;;;4991985;28;20208;-81
2021/09/12 05:04:07;;;;;;;8.93;3.85;;;15.70;99.90;;;;;;4993252;28;20166;-81
2021/09/12 05:06:33;;;;;;;9.23;4.03;;;15.80;99.90;;;;;;4993309;28;20299;-80
2021/09/12 05:08:58;;;;;;;10.02;3.95;;;15.70;99.90;;;;;;4991881;28;20299;-81
2021/09/12 05:11:24;;;;;;;8.18;3.83;;;15.70;99.90;;;;;;4991986;28;20518;-81
2021/09/12 05:13:50;;;;;;;6.15;3.67;;;15.90;99.90;;;;;;4993163;28;20212;-82
2021/09/12 05:16:15;;;;;;;5.40;3.25;;;15.90;99.90;;;;;;4993292;28;20170;-81
2021/09/12 05:18:41;;;;;;;8.35;3.33;;;15.70;99.90;;;;;;4991908;28;20201;-81
2021/09/12 05:21:07;;;;;;;8.63;3.38;;;15.70;99.90;;;;;;4992894;28;20173;-81
2021/09/12 05:23:32;;;;;;;9.77;3.97;;;15.80;99.90;;;;;;4992859;28;20235;-81
2021/09/12 05:25:58;;;;;;;6.22;3.70;;;15.70;99.90;;;;;;4992999;28;20600;-81
2021/09/12 05:28:24;;;;;;;6.00;3.35;;;15.80;99.90;;;;;;4992644;28;20220;-81
2021/09/12 05:30:49;;;;;;;10.55;3.97;;;15.90;99.90;;;;;;4991639;28;20199;-80
2021/09/12 05:33:15;;;;;;;7.78;4.53;;;15.90;99.90;;;;;;4991581;28;20534;-81
2021/09/12 05:35:40;;;;;;;4.05;3.50;;;15.70;99.90;;;;;;4993125;28;20181;-81
2021/09/12 05:38:07;;;;;;;10.50;5.07;;;15.70;99.90;;;;;;4991600;28;20270;-81
2021/09/12 05:40:32;;;;;;;5.32;3.50;;;15.80;99.90;;;;;;4993004;28;20153;-81
2021/09/12 05:42:59;;;;;;;7.53;3.90;;;15.80;99.90;;;;;;4992867;28;20185;-81
2021/09/12 05:45:24;;;;;;;5.13;4.13;;;15.90;99.90;;;;;;4991348;28;20618;-81
2021/09/12 05:47:50;;;;;;;5.97;4.07;;;15.90;99.90;;;;;;4992894;28;20212;-81
2021/09/12 05:50:16;;;;;;;10.68;4.05;;;16.00;99.90;;;;;;4991354;28;20652;-81
2021/09/12 05:52:42;;;;;;;7.43;4.68;;;16.10;99.90;;;;;;4991397;28;20169;-81
2021/09/12 05:55:08;;;;;;;7.80;4.25;;;16.20;99.90;;;;;;4992670;28;20196;-81
2021/09/12 05:57:34;;;;;;;7.80;3.67;;;16.00;99.90;;;;;;4991689;28;20165;-81
2021/09/12 06:00:00;;;;;;;6.18;3.42;;;15.80;99.90;;;;;;4992788;28;20192;-81
2021/09/12 06:02:26;;;;;;;7.22;3.78;;;15.80;99.90;;;;;;4992896;28;20685;-81
2021/09/12 06:04:52;;;;;;;9.43;3.75;;;15.80;99.90;;;;;;4992740;28;20197;-81
2021/09/12 06:07:17;;;;;;;9.48;4.05;;;15.90;99.90;;;;;;4992993;28;20228;-80
2021/09/12 06:09:43;;;;;;;6.07;2.95;;;16.10;99.90;;;;;;4991367;28;20220;-81
2021/09/12 06:12:09;;;;;;;10.07;3.38;;;16.10;99.90;;;;;;4994662;28;20222;-79
2021/09/12 06:14:35;;;;;;;8.95;3.25;;;16.10;99.90;;;;;;4994759;28;20165;-80
2021/09/12 06:17:05;;;;;;;3.13;2.67;;;16.00;99.90;;;;;;4996405;28;20180;-84
2021/09/12 06:19:32;;;;;;;5.75;2.97;;;16.30;99.90;;;;;;4994299;28;20193;-82
2021/09/12 06:21:58;;;;;;;6.75;3.28;;;16.30;99.90;;;;;;4995702;28;20162;-80
2021/09/12 06:24:23;;;;;;;9.15;3.75;;;16.60;99.90;;;;;;4994309;28;20564;-80
2021/09/12 06:26:49;;;;;;;5.22;3.10;;;16.70;99.90;;;;;;4995987;28;20669;-83
2021/09/12 06:29:15;;;;;;;3.30;2.70;;;16.60;99.90;;;;;;4994840;28;20359;-82
2021/09/12 06:31:40;;;;;;;9.20;2.45;;;16.70;99.90;;;;;;4994688;28;20176;-84
2021/09/12 06:34:06;;;;;;;6.75;4.10;;;16.80;99.90;;;;;;4995029;28;20284;-82
2021/09/12 06:36:32;;;;;;;4.43;2.65;;;16.80;99.90;;;;;;4996531;28;20173;-82
2021/09/12 06:38:57;;;;;;;5.53;2.30;;;16.80;99.90;;;;;;4994312;28;20189;-81
2021/09/12 06:41:23;;;;;;;5.00;3.17;;;16.90;99.90;;;;;;4994482;28;20180;-81
2021/09/12 06:43:48;;;;;;;2.67;2.13;;;16.90;99.90;;;;;;4995692;28;20645;-81
2021/09/12 06:46:14;;;;;;;8.57;2.50;;;17.00;99.90;;;;;;4994186;28;20677;-79
2021/09/12 06:48:40;;;;;;;6.72;3.08;;;17.00;99.90;;;;;;4994267;28;20208;-79
2021/09/12 06:51:05;;;;;;;3.75;2.75;;;17.10;99.90;;;;;;4995926;28;20172;-80
2021/09/12 06:53:31;;;;;;;7.85;2.70;;;17.00;99.90;;;;;;4994670;28;20181;-81
2021/09/12 06:55:57;;;;;;;5.78;2.72;;;16.80;99.90;;;;;;4995693;28;20165;-78
2021/09/12 06:58:22;;;;;;;3.90;2.75;;;17.10;99.90;;;;;;4995316;28;20228;-77
2021/09/12 07:00:48;;;;;;;8.13;2.70;;;17.20;99.90;;;;;;4995218;28;20239;-78
2021/09/12 07:03:14;;;;;;;4.93;3.35;;;17.10;99.90;;;;;;4995426;28;20216;-77
2021/09/12 07:05:39;;;;;;;3.47;2.25;;;17.10;99.90;;;;;;4995402;28;20169;-80
2021/09/12 07:08:05;;;;;;;2.67;2.42;;;17.20;99.90;;;;;;4995070;28;20245;-79
2021/09/12 07:10:31;;;;;;;10.68;2.55;;;17.00;99.90;;;;;;4995309;28;20165;-78
2021/09/12 07:12:56;;;;;;;8.00;2.60;;;17.20;99.90;;;;;;4993914;28;20173;-78
2021/09/12 07:15:22;;;;;;;7.53;2.50;;;17.40;99.90;;;;;;4994941;28;20177;-78
2021/09/12 07:17:48;;;;;;;4.82;2.45;;;17.70;99.90;;;;;;4995262;28;20173;-80
2021/09/12 07:20:14;;;;;;;5.18;2.45;;;17.50;99.90;;;;;;4995351;28;20519;-80
2021/09/12 07:22:40;;;;;;;7.53;2.63;;;17.70;99.90;;;;;;4994951;28;20252;-79
2021/09/12 07:25:06;;;;;;;4.15;2.33;;;17.80;99.90;;;;;;4995066;28;20268;-79
2021/09/12 07:27:31;;;;;;;5.65;2.50;;;17.90;99.90;;;;;;4994575;28;20209;-79
2021/09/12 07:29:57;;;;;;;5.85;2.55;;;17.80;99.90;;;;;;4994734;28;20182;-79
2021/09/12 07:32:23;;;;;;;6.25;2.63;;;18.00;99.90;;;;;;4993064;28;20180;-80
2021/09/12 07:34:49;;;;;;;7.30;2.20;;;18.10;99.90;;;;;;4994775;28;20167;-79
2021/09/12 07:37:14;;;;;;;6.70;2.88;;;18.00;99.90;;;;;;4995220;28;20173;-79
2021/09/12 07:39:40;;;;;;;3.28;2.67;;;17.90;99.90;;;;;;4995020;28;20193;-79
2021/09/12 07:42:06;;;;;;;5.45;2.58;;;18.10;99.90;;;;;;4994641;28;20184;-79
2021/09/12 07:44:31;;;;;;;6.05;2.72;;;18.10;99.90;;;;;;4994729;28;20723;-79
2021/09/12 07:46:57;;;;;;;5.55;2.70;;;17.90;99.90;;;;;;4995002;28;20243;-79
2021/09/12 07:49:23;;;;;;;6.07;2.30;;;18.20;99.90;;;;;;4996280;28;20193;-79
2021/09/12 07:51:48;;;;;;;5.40;3.08;;;18.20;99.90;;;;;;4996245;28;20209;-79
2021/09/12 07:54:14;;;;;;;4.10;2.67;;;18.30;99.90;;;;;;4994753;28;20165;-79
2021/09/12 07:56:39;;;;;;;5.30;2.60;;;18.50;99.90;;;;;;4993240;28;20587;-79
2021/09/12 07:59:05;;;;;;;6.93;2.58;;;18.90;99.90;;;;;;4994789;28;20189;-79
2021/09/12 08:01:33;;;;;;;4.95;2.75;;;18.80;99.90;;;;;;4994612;28;20526;-79
2021/09/12 08:03:59;;;;;;;5.82;2.58;;;18.90;99.90;;;;;;4994307;28;20600;-79
2021/09/12 08:06:25;;;;;;;6.75;3.28;;;19.00;99.90;;;;;;4994580;28;20228;-81
2021/09/12 08:08:50;;;;;;;7.93;2.65;;;19.00;99.90;;;;;;4994275;28;20515;-79
2021/09/12 08:11:16;;;;;;;7.80;3.17;;;19.20;99.90;;;;;;4994254;28;20180;-79
2021/09/12 08:13:42;;;;;;;5.72;2.85;;;19.50;99.90;;;;;;4993879;28;21388;-79
2021/09/12 08:16:08;;;;;;;5.30;2.30;;;19.40;99.90;;;;;;4996195;28;20179;-79
2021/09/12 08:18:35;;;;;;;4.55;2.30;;;19.60;99.90;;;;;;4994233;28;20275;-80
2021/09/12 08:21:01;;;;;;;5.80;3.22;;;19.60;99.90;;;;;;4993322;28;20185;-79
2021/09/12 08:23:27;;;;;;;6.03;2.90;;;19.90;99.90;;;;;;4993441;28;20181;-78
2021/09/12 08:25:56;;;;;;;7.50;3.25;;;20.10;99.90;;;;;;4992984;28;20233;-79
2021/09/12 08:28:22;;;;;;;6.57;3.40;;;20.00;99.90;;;;;;4992486;28;20193;-79
2021/09/12 08:30:50;;;;;;;12.07;3.88;;;19.70;99.90;;;;;;4994273;28;20223;-79
2021/09/12 08:33:17;;;;;;;11.85;4.63;;;19.50;99.90;;;;;;4993939;28;20165;-79
2021/09/12 08:35:44;;;;;;;10.00;4.93;;;19.60;99.90;;;;;;4993259;28;20248;-79
2021/09/12 08:38:16;;;;;;;8.93;4.43;;;19.70;99.90;;;;;;4994121;28;20677;-79
2021/09/12 08:40:42;;;;;;;5.97;5.10;;;19.70;99.90;;;;;;4993671;28;20184;-79
2021/09/12 08:43:08;;;;;;;8.63;5.10;;;19.80;99.90;;;;;;4993805;28;20177;-80
2021/09/12 08:45:34;;;;;;;15.10;5.72;;;19.90;99.90;;;;;;4993701;28;20180;-80
2021/09/12 08:48:01;;;;;;;14.93;5.40;;;20.00;99.90;;;;;;4992421;28;20295;-80
2021/09/12 08:50:27;;;;;;;13.55;6.00;;;20.20;99.90;;;;;;4993908;28;20170;-79
2021/09/12 08:52:52;;;;;;;9.57;5.35;;;20.30;99.90;;;;;;4992273;28;20187;-80
2021/09/12 08:55:18;;;;;;;11.00;4.72;;;20.70;99.90;;;;;;4991997;28;20196;-80
2021/09/12 08:57:46;;;;;;;8.05;5.20;;;20.50;99.90;;;;;;4994613;28;20577;-83
2021/09/12 09:00:17;;;;;;;9.93;5.57;;;20.60;99.90;;;;;;4993186;28;20188;-83
2021/09/12 09:02:42;;;;;;;9.73;6.28;;;20.80;99.90;;;;;;4993778;28;20169;-83
2021/09/12 09:05:11;;;;;;;17.35;6.43;;;20.60;99.90;;;;;;4992196;28;20540;-83
2021/09/12 09:07:36;;;;;;;7.53;5.53;;;20.50;99.90;;;;;;4992452;28;20443;-83
2021/09/12 09:10:05;;;;;;;11.98;6.63;;;20.40;99.90;;;;;;4992487;28;20276;-84
2021/09/12 09:12:38;;;;;;;8.07;6.13;;;20.40;99.90;;;;;;4993451;28;20189;-83
2021/09/12 09:15:05;;;;;;;14.15;6.07;;;20.50;99.90;;;;;;4992504;28;20239;-85
2021/09/12 09:17:44;;;;;;;28.50;6.97;;;20.50;99.90;;;;;;4992221;28;20273;-83
2021/09/12 09:20:13;;;;;;;15.38;6.25;;;20.50;99.90;;;;;;4992415;28;20183;-83
2021/09/12 09:22:47;;;;;;;6.32;5.03;;;20.60;99.90;;;;;;4992145;28;20527;-84
2021/09/12 09:25:19;;;;;;;9.25;5.35;;;20.70;99.90;;;;;;4992150;28;20175;-84
2021/09/12 09:28:03;;;;;;;11.50;6.20;;;20.60;99.90;;;;;;4991851;28;20208;-85
2021/09/12 09:30:48;;;;;;;7.85;5.70;;;20.70;99.90;;;;;;4993685;28;20161;-88
2021/09/12 09:33:15;;;;;;;6.18;5.68;;;20.60;99.90;;;;;;4992958;28;20172;-92
2021/09/12 09:35:58;;;;;;;8.48;5.70;;;20.50;99.90;;;;;;4993403;28;20177;-87
2021/09/12 09:38:27;;;;;;;9.90;5.45;;;20.60;99.90;;;;;;4992842;28;20197;-85
2021/09/12 09:41:02;;;;;;;9.52;4.88;;;20.80;99.90;;;;;;4992320;28;20236;-87
2021/09/12 09:43:43;;;;;;;13.48;9.55;;;20.70;99.90;;;;;;4993052;28;20223;-83
2021/09/12 09:46:35;;;;;;;9.57;5.32;;;20.50;99.90;;;;;;4993781;28;20262;-80
2021/09/12 09:49:30;;;;;;;7.68;5.25;;;20.70;99.90;;;;;;4997480;28;20224;-80
2021/09/12 09:52:01;;;;;;;7.90;4.80;;;21.10;99.90;;;;;;4996513;28;20292;-80
2021/09/12 09:54:33;;;;;;;10.52;4.93;;;21.30;99.90;;;;;;4996627;28;20201;-80
2021/09/12 09:56:59;;;;;;;9.43;5.43;;;21.30;99.90;;;;;;4996727;28;20177;-83
2021/09/12 09:59:26;;;;;;;8.75;5.10;;;21.40;99.90;;;;;;4996732;28;20268;-82
2021/09/12 10:01:55;;;;;;;6.53;4.47;;;21.40;99.90;;;;;;4997017;28;20177;-83
2021/09/12 10:04:28;;;;;;;14.77;6.57;;;21.50;99.90;;;;;;4996019;28;20272;-79
2021/09/12 10:06:56;;;;;;;7.10;5.13;;;21.50;99.90;;;;;;4996609;28;20557;-81
2021/09/12 10:09:22;;;;;;;8.90;6.70;;;21.40;99.90;;;;;;4996339;28;20240;-80
2021/09/12 10:11:49;;;;;;;16.25;7.45;;;21.30;99.90;;;;;;4996806;28;20248;-82
2021/09/12 10:14:22;;;;;;;7.43;5.68;;;21.40;99.90;;;;;;4996565;28;20172;-81
2021/09/12 10:16:48;;;;;;;10.10;5.65;;;21.30;99.90;;;;;;4996791;28;20630;-82
2021/09/12 10:19:31;;;;;;;8.65;5.45;;;21.50;99.90;;;;;;4995108;28;20523;-82
2021/09/12 10:22:00;;;;;;;7.20;4.82;;;21.70;99.90;;;;;;4996011;28;20649;-82
2021/09/12 10:24:27;;;;;;;11.30;6.68;;;22.00;99.90;;;;;;4994103;28;20173;-81
2021/09/12 10:26:52;;;;;;;11.65;5.85;;;22.30;99.90;;;;;;4993829;28;20213;-81
2021/09/12 10:29:50;;;;;;;11.13;5.82;;;22.50;99.90;;;;;;4995390;28;20223;-82
2021/09/12 10:32:35;;;;;;;9.20;5.82;;;22.70;99.90;;;;;;4986818;28;20232;-81
2021/09/12 10:35:18;;;;;;;8.00;4.90;;;23.00;99.90;;;;;;4995482;28;20231;-82
2021/09/12 10:38:03;;;;;;;7.68;4.78;;;23.00;99.90;;;;;;4984624;28;20244;-81
2021/09/12 10:40:47;;;;;;;10.73;5.15;;;22.90;99.90;;;;;;4993528;28;20187;-83
2021/09/12 10:43:29;;;;;;;25.30;5.13;;;23.30;99.90;;;;;;4994861;28;20177;-82
2021/09/12 10:46:01;;;;;;;7.13;5.80;;;23.20;99.90;;;;;;4995300;28;20184;-89
2021/09/12 10:48:56;;;;;;;7.25;5.47;;;23.00;99.90;;;;;;4993536;28;20270;-83
2021/09/12 10:51:22;;;;;;;8.45;5.90;;;23.20;99.90;;;;;;4973676;28;20189;-81
2021/09/12 10:53:59;;;;;;;6.32;4.90;;;23.30;99.90;;;;;;4993849;28;20537;-85
2021/09/12 10:56:25;;;;;;;15.80;5.95;;;23.50;99.90;;;;;;4992695;28;20184;-82
2021/09/12 10:58:56;;;;;;;9.07;4.53;;;23.80;99.90;;;;;;4992230;28;20193;-83
2021/09/12 11:01:27;;;;;;;9.63;5.68;;;23.70;99.90;;;;;;4994940;28;20177;-82
2021/09/12 11:03:58;;;;;;;12.95;5.55;;;23.70;99.90;;;;;;4993187;28;20173;-83
2021/09/12 11:06:25;;;;;;;7.70;5.22;;;23.70;99.90;;;;;;4998555;28;20323;-83
2021/09/12 11:08:50;;;;;;;8.68;5.45;;;23.90;99.90;;;;;;4996814;28;20657;-82
2021/09/12 11:11:16;;;;;;;16.58;5.85;;;24.00;99.90;;;;;;5010409;28;20204;-83
2021/09/12 11:13:42;;;;;;;12.15;6.22;;;23.80;99.90;;;;;;5006693;28;20204;-81
2021/09/12 11:16:10;;;;;;;7.50;5.30;;;23.70;99.90;;;;;;4994060;28;20642;-82
2021/09/12 11:19:01;;;;;;;6.18;4.63;;;23.60;99.90;;;;;;4994005;28;20199;-81
2021/09/12 11:21:36;;;;;;;10.32;5.03;;;23.30;99.90;;;;;;4994156;28;20188;-81
2021/09/12 11:24:13;;;;;;;12.75;6.00;;;23.20;99.90;;;;;;4989874;28;20533;-83
2021/09/12 11:26:56;;;;;;;6.18;5.28;;;23.40;99.90;;;;;;4994000;28;20208;-81
2021/09/12 11:29:24;;;;;;;17.90;6.30;;;23.60;99.90;;;;;;4993377;28;20192;-81
2021/09/12 11:31:52;;;;;;;17.15;7.00;;;23.60;99.90;;;;;;4995408;28;20185;-82
2021/09/12 11:34:21;;;;;;;7.82;5.50;;;23.70;99.90;;;;;;4991076;28;20177;-85
2021/09/12 11:36:48;;;;;;;11.90;7.28;;;23.60;99.90;;;;;;4993772;28;20177;-84
2021/09/12 11:39:18;;;;;;;6.97;5.35;;;23.70;99.90;;;;;;4993584;28;20675;-83
2021/09/12 11:41:43;;;;;;;5.22;4.72;;;23.70;99.90;;;;;;4990983;28;20879;-82
2021/09/12 11:44:10;;;;;;;12.60;5.38;;;23.90;99.90;;;;;;4991253;28;20177;-82
2021/09/12 11:46:42;;;;;;;4.30;3.80;;;23.60;99.90;;;;;;4991577;28;20201;-85
2021/09/12 11:49:07;;;;;;;6.55;5.10;;;23.60;99.90;;;;;;4986151;28;20205;-86
2021/09/12 11:51:36;;;;;;;8.00;4.75;;;23.70;99.90;;;;;;4992203;28;20172;-80
2021/09/12 11:54:21;;;;;;;5.18;4.47;;;23.80;99.90;;;;;;4988787;28;20184;-85
2021/09/12 11:57:06;;;;;;;9.15;4.95;;;23.90;99.90;;;;;;4992212;28;20268;-81
2021/09/12 11:59:37;;;;;;;4.55;4.10;;;23.60;99.90;;;;;;4992218;28;20676;-83
2021/09/12 12:02:03;;;;;;;4.65;4.18;;;23.80;99.90;;;;;;4992929;28;20201;-82
2021/09/12 12:04:31;;;;;;;5.68;4.03;;;24.10;99.90;;;;;;4992547;28;20212;-82
2021/09/12 12:06:59;;;;;;;5.32;4.32;;;23.90;99.90;;;;;;4993041;28;20259;-81
2021/09/12 12:09:36;;;;;;;7.35;4.82;;;23.80;99.90;;;;;;4989674;28;20193;-87
2021/09/12 12:12:13;;;;;;;6.22;4.50;;;23.90;99.90;;;;;;4990713;28;20813;-87
2021/09/12 12:15:00;;;;;;;6.32;4.72;;;24.10;99.90;;;;;;4989660;28;20567;-82
2021/09/12 12:17:27;;;;;;;13.70;4.93;;;23.90;99.90;;;;;;4989905;28;20267;-85
2021/09/12 12:19:55;;;;;;;5.03;4.55;;;24.10;99.90;;;;;;4990753;28;20189;-81
2021/09/12 12:22:23;;;;;;;9.70;4.75;;;24.10;99.90;;;;;;4988545;28;21037;-82
2021/09/12 12:24:54;;;;;;;6.18;4.78;;;23.90;99.90;;;;;;4991519;28;20209;-80
2021/09/12 12:27:21;;;;;;;9.95;4.95;;;24.10;99.90;;;;;;4992930;28;20216;-81
2021/09/12 12:30:00;;;;;;;8.43;4.78;;;24.10;99.90;;;;;;5006651;28;20703;-81
2021/09/12 12:32:30;;;;;;;7.15;4.53;;;24.00;99.90;;;;;;4992081;28;20260;-81
2021/09/12 12:34:58;;;;;;;10.35;4.28;;;24.30;99.90;;;;;;4988917;28;20173;-80
2021/09/12 12:37:42;;;;;;;7.13;4.18;;;24.20;99.90;;;;;;4992425;28;20224;-79
2021/09/12 12:40:09;;;;;;;5.53;4.35;;;24.10;99.90;;;;;;4990816;28;20200;-81
2021/09/12 12:42:36;;;;;;;6.50;4.47;;;24.00;99.90;;;;;;5008810;28;20718;-85
2021/09/12 12:45:22;;;;;;;5.70;4.45;;;24.00;99.90;;;;;;4989190;28;20180;-83
2021/09/12 12:47:49;;;;;;;4.90;4.45;;;24.10;99.90;;;;;;4986791;28;20753;-81